Time;durP1;ratioP1;P1;durP2;ratioP2;P2;SDS_P1;SDS_P2;PMS_P1;PMS_P2;Temp;Humidity;BMP_temperature;BMP_pressure;BME280_temperature;BME280_humidity;BME280_pressure;Samples;Min_cycle;Max_cycle;Signal;HPM_P1;HPM_P2
2023/10/29 00:02:17;;;;;;;10.53;5.13;;;;;;;-141.97;nan;47703.59;5051601;28;20166;-83
2023/10/29 00:04:42;;;;;;;10.30;4.43;;;;;;;-141.97;nan;47657.47;5051353;28;20252;-84
2023/10/29 00:07:08;;;;;;;11.20;4.40;;;;;;;-141.97;nan;47655.53;5051663;28;20252;-85
2023/10/29 00:09:33;;;;;;;9.10;4.67;;;;;;;-141.97;nan;47630.56;5051492;28;20569;-84
2023/10/29 00:11:59;;;;;;;10.20;4.90;;;;;;;-141.97;nan;47795.88;5051522;28;20275;-84
2023/10/29 00:14:25;;;;;;;9.93;5.33;;;;;;;-141.97;nan;47638.25;5051555;28;20657;-83
2023/10/29 00:16:50;;;;;;;18.30;9.00;;;;;;;-141.97;nan;47826.63;5051629;28;20563;-84
2023/10/29 00:19:16;;;;;;;21.20;10.07;;;;;;;-141.97;nan;47455.66;5051287;28;20173;-84
2023/10/29 00:21:42;;;;;;;19.97;9.70;;;;;;;-141.97;nan;47636.31;5051271;28;20170;-83
2023/10/29 00:24:08;;;;;;;17.97;8.17;;;;;;;-141.97;nan;47634.41;5051271;28;20546;-83
2023/10/29 00:26:34;;;;;;;16.67;8.47;;;;;;;-141.97;nan;47701.69;5051182;28;20172;-85
2023/10/29 00:29:00;;;;;;;14.63;8.13;;;;;;;-141.97;nan;47522.91;5051178;28;20461;-86
2023/10/29 00:31:26;;;;;;;15.07;7.70;;;;;;;-141.97;nan;47830.47;5053982;28;20162;-86
2023/10/29 00:33:51;;;;;;;20.00;7.67;;;;;;;-141.97;nan;47680.53;5057137;28;20223;-84
2023/10/29 00:36:16;;;;;;;15.93;7.57;;;;;;;-141.97;nan;47651.69;5085321;28;20267;-83
2023/10/29 00:38:42;;;;;;;14.17;7.80;;;;;;;-141.97;nan;47655.53;5071341;28;20195;-82
2023/10/29 00:41:07;;;;;;;17.13;8.20;;;;;;;-141.97;nan;47678.63;5071117;28;20171;-83
2023/10/29 00:43:45;;;;;;;14.67;7.90;;;;;;;-141.97;nan;47740.13;5071231;28;20590;-86
2023/10/29 00:46:15;;;;;;;15.80;8.20;;;;;;;-141.97;nan;47657.47;5071045;28;20182;-86
2023/10/29 00:48:41;;;;;;;16.07;8.00;;;;;;;-141.97;nan;47694.00;5070851;28;20161;-84
2023/10/29 00:51:07;;;;;;;16.87;7.93;;;;;;;-141.97;nan;47686.31;5070840;28;20168;-84
2023/10/29 00:53:33;;;;;;;17.53;8.57;;;;;;;-141.97;nan;47657.47;5070002;28;20267;-84
2023/10/29 00:55:59;;;;;;;15.23;8.23;;;;;;;-141.97;nan;47657.47;5070997;28;20621;-81
2023/10/29 00:58:26;;;;;;;14.03;7.43;;;;;;;-141.97;nan;47555.59;5071442;28;20645;-82
2023/10/29 01:00:51;;;;;;;15.20;7.27;;;;;;;-141.97;nan;47655.53;5070923;28;20171;-82
2023/10/29 01:03:18;;;;;;;15.23;7.77;;;;;;;-141.97;nan;47672.84;5070908;28;20243;-82
2023/10/29 01:05:45;;;;;;;13.30;7.10;;;;;;;-141.97;nan;47657.47;5070531;28;20163;-82
2023/10/29 01:08:11;;;;;;;15.73;7.33;;;;;;;-141.97;nan;47724.75;5070659;28;20545;-82
2023/10/29 01:10:36;;;;;;;12.70;7.30;;;;;;;-141.97;nan;47678.63;5070670;28;20176;-83
2023/10/29 01:13:02;;;;;;;17.07;7.50;;;;;;;-141.97;nan;47669.00;5070872;28;20192;-84
2023/10/29 01:15:27;;;;;;;15.47;7.20;;;;;;;-141.97;nan;47667.06;5070605;28;20658;-82
2023/10/29 01:17:52;;;;;;;13.20;6.93;;;;;;;-141.97;nan;47653.63;5070752;28;20172;-83
2023/10/29 01:20:18;;;;;;;15.17;7.10;;;;;;;-141.97;nan;47657.47;5071570;28;20171;-83
2023/10/29 01:22:44;;;;;;;15.83;6.60;;;;;;;-141.97;nan;47653.63;5074852;28;20164;-83
2023/10/29 01:25:10;;;;;;;12.33;5.83;;;;;;;-141.97;nan;47659.38;5076540;28;20636;-83
2023/10/29 01:27:37;;;;;;;14.20;6.23;;;;;;;-141.97;nan;47667.06;5073438;28;20157;-82
2023/10/29 01:30:05;;;;;;;9.20;5.43;;;;;;;-141.97;nan;47542.16;5095507;28;20168;-83
2023/10/29 01:32:31;;;;;;;10.53;5.50;;;;;;;-141.97;nan;47676.69;5085852;28;20195;-83
2023/10/29 01:34:56;;;;;;;11.83;6.10;;;;;;;-141.97;nan;47655.53;5072121;28;20169;-83
2023/10/29 01:37:21;;;;;;;9.97;5.13;;;;;;;-141.97;nan;47697.84;5071311;28;20600;-83
2023/10/29 01:39:47;;;;;;;11.50;5.57;;;;;;;-141.97;nan;47680.53;5071122;28;20161;-84
2023/10/29 01:42:12;;;;;;;10.67;5.40;;;;;;;-141.97;nan;47686.31;5070604;28;20609;-86
2023/10/29 01:44:38;;;;;;;10.13;5.30;;;;;;;-141.97;nan;47657.47;5071057;28;20168;-87
2023/10/29 01:47:03;;;;;;;10.83;5.47;;;;;;;-141.97;nan;47692.06;5070975;28;20161;-87
2023/10/29 01:49:29;;;;;;;12.67;5.90;;;;;;;-141.97;nan;47676.69;5070408;28;20161;-87
2023/10/29 01:51:54;;;;;;;11.63;5.20;;;;;;;-141.97;nan;47634.41;5070223;28;20160;-87
2023/10/29 01:54:22;;;;;;;9.80;5.30;;;;;;;-141.97;nan;47630.56;5070189;28;20656;-83
2023/10/29 01:56:47;;;;;;;12.13;5.23;;;;;;;-141.97;nan;47613.25;5070137;28;20168;-83
2023/10/29 01:59:14;;;;;;;10.37;5.27;;;;;;;-141.97;nan;47655.53;5070364;28;20161;-84
2023/10/29 02:01:40;;;;;;;10.80;4.97;;;;;;;-141.97;nan;47674.78;5070314;28;20176;-82
2023/10/29 02:04:12;;;;;;;9.40;4.63;;;;;;;-141.97;nan;47707.44;5072089;28;20243;-82
2023/10/29 02:06:40;;;;;;;11.70;5.17;;;;;;;-141.97;nan;47694.00;5073755;28;20313;-82
2023/10/29 02:09:09;;;;;;;7.87;4.47;;;;;;;-141.97;nan;47634.41;5074224;28;20164;-83
2023/10/29 02:11:39;;;;;;;9.33;4.97;;;;;;;-141.97;nan;47722.81;5073820;28;20161;-83
2023/10/29 02:14:05;;;;;;;8.77;4.83;;;;;;;-141.97;nan;47640.16;5073928;28;20185;-83
2023/10/29 02:16:30;;;;;;;9.50;4.43;;;;;;;-141.97;nan;47626.72;5073459;28;20220;-83
2023/10/29 02:18:56;;;;;;;11.00;4.70;;;;;;;-141.97;nan;47728.59;5073628;28;20171;-83
2023/10/29 02:21:23;;;;;;;10.30;4.80;;;;;;;-141.97;nan;47695.91;5073432;28;20153;-85
2023/10/29 02:23:49;;;;;;;9.93;4.70;;;;;;;-141.97;nan;47768.94;5073768;28;20159;-85
2023/10/29 02:26:15;;;;;;;8.40;4.40;;;;;;;-141.97;nan;47753.56;5073610;28;20246;-85
2023/10/29 02:28:40;;;;;;;9.27;4.83;;;;;;;-141.97;nan;47528.69;5055394;28;20645;-85
2023/10/29 02:31:06;;;;;;;11.00;4.77;;;;;;;-141.97;nan;47726.66;5073548;28;20239;-85
2023/10/29 02:33:31;;;;;;;10.87;4.93;;;;;;;-141.97;nan;47649.78;5055017;28;20672;-84
2023/10/29 02:35:57;;;;;;;10.60;4.67;;;;;;;-141.97;nan;47730.50;5055097;28;20169;-85
2023/10/29 02:38:25;;;;;;;10.40;4.93;;;;;;;-141.97;nan;47768.94;5074319;28;20204;-86
2023/10/29 02:40:54;;;;;;;12.33;4.80;;;;;;;-141.97;nan;47542.16;5074725;28;20161;-83
2023/10/29 02:43:19;;;;;;;9.47;4.53;;;;;;;-141.97;nan;47659.38;5057221;28;20161;-82
2023/10/29 02:45:44;;;;;;;10.43;4.50;;;;;;;-141.97;nan;47538.28;5077020;28;20257;-83
2023/10/29 02:48:10;;;;;;;11.43;4.57;;;;;;;-141.97;nan;47680.53;5073064;28;20157;-83
2023/10/29 02:50:38;;;;;;;11.10;4.43;;;;;;;-141.97;nan;47630.56;5073099;28;20193;-84
2023/10/29 02:53:04;;;;;;;9.30;4.40;;;;;;;-141.97;nan;47645.94;5055074;28;20541;-83
2023/10/29 02:55:29;;;;;;;9.50;4.50;;;;;;;-141.97;nan;47649.78;5072978;28;20168;-83
2023/10/29 02:57:55;;;;;;;11.87;4.30;;;;;;;-141.97;nan;47642.09;5078640;28;20145;-81
2023/10/29 03:00:20;;;;;;;11.03;4.47;;;;;;;-141.97;nan;47672.84;5098443;28;20199;-81
2023/10/29 03:02:46;;;;;;;13.10;4.67;;;;;;;-141.97;nan;47647.84;5076623;28;20164;-82
2023/10/29 03:05:12;;;;;;;9.57;4.50;;;;;;;-141.97;nan;47753.56;5072578;28;20239;-83
2023/10/29 03:07:37;;;;;;;13.43;4.70;;;;;;;-141.97;nan;47592.13;5072955;28;20200;-82
2023/10/29 03:10:04;;;;;;;8.97;4.40;;;;;;;-141.97;nan;47647.84;5072674;28;20169;-82
2023/10/29 03:12:30;;;;;;;10.93;4.60;;;;;;;-141.97;nan;47670.91;5072521;28;20621;-82
2023/10/29 03:14:55;;;;;;;8.07;4.63;;;;;;;-141.97;nan;47670.91;5053962;28;20212;-82
2023/10/29 03:17:21;;;;;;;11.43;4.80;;;;;;;-141.97;nan;47661.31;5072210;28;20258;-83
2023/10/29 03:19:46;;;;;;;11.80;4.47;;;;;;;-141.97;nan;47619.03;5072485;28;20236;-83
2023/10/29 03:22:11;;;;;;;14.03;5.13;;;;;;;-141.97;nan;47682.47;5072720;28;20173;-84
2023/10/29 03:24:37;;;;;;;13.90;4.70;;;;;;;-141.97;nan;47672.84;5072402;28;20165;-84
2023/10/29 03:27:02;;;;;;;8.93;4.40;;;;;;;-141.97;nan;47767.03;5072296;28;20617;-84
2023/10/29 03:29:30;;;;;;;9.83;4.30;;;;;;;-141.97;nan;47682.47;5073996;28;20247;-84
2023/10/29 03:31:55;;;;;;;11.10;4.63;;;;;;;-141.97;nan;47592.13;5054320;28;20200;-85
2023/10/29 03:34:21;;;;;;;10.47;4.53;;;;;;;-141.97;nan;47674.78;5072426;28;20223;-86
2023/10/29 03:36:46;;;;;;;11.20;4.40;;;;;;;-141.97;nan;47592.13;5072170;28;20176;-84
2023/10/29 03:39:11;;;;;;;9.67;4.70;;;;;;;-141.97;nan;47684.38;5072554;28;20593;-84
2023/10/29 03:41:37;;;;;;;13.40;4.93;;;;;;;-141.97;nan;47680.53;5072098;28;20218;-84
2023/10/29 03:44:02;;;;;;;8.30;4.63;;;;;;;-141.97;nan;47672.84;5072047;28;20219;-85
2023/10/29 03:46:27;;;;;;;12.10;4.63;;;;;;;-141.97;nan;47647.84;5072040;28;20362;-83
2023/10/29 03:48:53;;;;;;;9.10;4.57;;;;;;;-141.97;nan;47619.03;5072232;28;20251;-84
2023/10/29 03:51:18;;;;;;;12.80;4.90;;;;;;;-141.97;nan;47630.56;5063551;28;20198;-84
2023/10/29 03:53:44;;;;;;;10.10;4.97;;;;;;;-141.97;nan;47695.91;5069247;28;20204;-85
2023/10/29 03:56:10;;;;;;;10.50;5.00;;;;;;;-141.97;nan;47761.25;5074717;28;20164;-84
2023/10/29 03:58:35;;;;;;;12.43;7.07;;;;;;;-141.97;nan;47686.31;5071855;28;20169;-84
2023/10/29 04:01:01;;;;;;;24.23;11.73;;;;;;;-141.97;nan;47676.69;5051905;28;20181;-83
2023/10/29 04:03:28;;;;;;;24.87;13.27;;;;;;;-141.97;nan;47669.00;5051995;28;20154;-84
2023/10/29 04:05:54;;;;;;;19.17;11.23;;;;;;;-141.97;nan;47669.00;5051635;28;20351;-85
2023/10/29 04:08:19;;;;;;;14.17;5.87;;;;;;;-141.97;nan;47665.16;5051827;28;20599;-84
2023/10/29 04:10:45;;;;;;;10.90;4.97;;;;;;;-141.97;nan;47713.22;5051805;28;20232;-83
2023/10/29 04:13:10;;;;;;;10.37;4.50;;;;;;;-141.97;nan;47678.63;5051381;28;20205;-85
2023/10/29 04:15:35;;;;;;;9.10;4.50;;;;;;;-141.97;nan;47661.31;5051546;28;20157;-84
2023/10/29 04:18:01;;;;;;;9.77;4.90;;;;;;;-141.97;nan;47626.72;5051563;28;20169;-84
2023/10/29 04:20:27;;;;;;;11.40;5.00;;;;;;;-141.97;nan;47638.25;5051656;28;20168;-84
2023/10/29 04:22:53;;;;;;;9.47;5.17;;;;;;;-141.97;nan;47595.97;5051127;28;20173;-84
2023/10/29 04:25:18;;;;;;;8.23;4.20;;;;;;;-141.97;nan;47644.00;5033112;28;20253;-83
2023/10/29 04:27:43;;;;;;;10.03;4.23;;;;;;;-141.97;nan;47772.78;5051133;28;20161;-83
2023/10/29 04:30:09;;;;;;;9.80;3.93;;;;;;;-141.97;nan;47661.31;5051064;28;20170;-83
2023/10/29 04:32:35;;;;;;;7.93;4.10;;;;;;;-141.97;nan;47657.47;5051010;28;20196;-84
2023/10/29 04:35:00;;;;;;;8.27;4.10;;;;;;;-141.97;nan;47674.78;5032878;28;20226;-83
2023/10/29 04:37:25;;;;;;;11.00;4.27;;;;;;;-141.97;nan;47605.56;5051008;28;20200;-84
2023/10/29 04:39:51;;;;;;;30.87;12.00;;;;;;;-141.97;nan;47688.22;5051094;28;20410;-83
2023/10/29 04:42:16;;;;;;;28.53;11.17;;;;;;;-141.97;nan;47636.31;5051253;28;20582;-83
2023/10/29 04:44:42;;;;;;;47.80;22.63;;;;;;;-141.97;nan;47688.22;5051024;28;20174;-84
2023/10/29 04:47:08;;;;;;;29.00;14.00;;;;;;;-141.97;nan;47663.22;5051021;28;20158;-82
2023/10/29 04:49:33;;;;;;;18.87;9.87;;;;;;;-141.97;nan;47684.38;5032950;28;20192;-84
2023/10/29 04:51:59;;;;;;;17.83;9.10;;;;;;;-141.97;nan;47653.63;5032850;28;20174;-85
2023/10/29 04:54:24;;;;;;;20.97;11.80;;;;;;;-141.97;nan;47603.66;5050765;28;20657;-85
2023/10/29 04:56:49;;;;;;;23.70;12.77;;;;;;;-141.97;nan;47786.25;5051029;28;20292;-85
2023/10/29 04:59:15;;;;;;;23.90;9.70;;;;;;;-141.97;nan;47674.78;5033031;28;20565;-84
2023/10/29 05:01:40;;;;;;;21.43;8.27;;;;;;;-141.97;nan;47692.06;5033112;28;20847;-84
2023/10/29 05:04:06;;;;;;;17.50;8.17;;;;;;;-141.97;nan;47682.47;5050949;28;20248;-84
2023/10/29 05:06:31;;;;;;;17.37;8.00;;;;;;;-141.97;nan;47803.56;5050930;28;20184;-84
2023/10/29 05:08:57;;;;;;;19.43;7.73;;;;;;;-141.97;nan;47699.75;5050899;28;20169;-85
2023/10/29 05:11:23;;;;;;;18.60;8.40;;;;;;;-141.97;nan;47607.50;5032701;28;20248;-84
2023/10/29 05:13:48;;;;;;;14.53;6.90;;;;;;;-141.97;nan;47634.41;5050750;28;20280;-84
2023/10/29 05:16:14;;;;;;;15.33;6.63;;;;;;;-141.97;nan;47626.72;5050422;28;20225;-84
2023/10/29 05:18:40;;;;;;;31.70;8.57;;;;;;;-141.97;nan;47647.84;5032518;28;20227;-85
2023/10/29 05:21:05;;;;;;;82.73;34.60;;;;;;;-141.97;nan;47665.16;5032717;28;20169;-86
2023/10/29 05:23:30;;;;;;;80.73;44.03;;;;;;;-141.97;nan;47688.22;5054219;28;20248;-83
2023/10/29 05:25:56;;;;;;;75.33;38.73;;;;;;;-141.97;nan;47603.66;5075958;28;20256;-84
2023/10/29 05:28:22;;;;;;;22.43;11.23;;;;;;;-141.97;nan;47565.22;5069403;28;20193;-85
2023/10/29 05:30:47;;;;;;;38.13;18.97;;;;;;;-141.97;nan;47811.25;5073007;28;20168;-86
2023/10/29 05:33:12;;;;;;;36.87;20.10;;;;;;;-141.97;nan;47705.53;5076154;28;20185;-85
2023/10/29 05:35:38;;;;;;;42.83;20.23;;;;;;;-141.97;nan;47642.09;5049238;28;20288;-84
2023/10/29 05:38:04;;;;;;;42.47;16.67;;;;;;;-141.97;nan;47705.53;5060878;28;20605;-86
2023/10/29 05:40:29;;;;;;;27.17;10.53;;;;;;;-141.97;nan;47642.09;5057973;28;20570;-85
2023/10/29 05:42:55;;;;;;;22.80;8.93;;;;;;;-141.97;nan;47580.59;5055727;28;20165;-84
2023/10/29 05:45:20;;;;;;;15.27;6.20;;;;;;;-141.97;nan;47663.22;5055149;28;20161;-85
2023/10/29 05:47:46;;;;;;;13.37;6.13;;;;;;;-141.97;nan;47665.16;5038381;28;20193;-86
2023/10/29 05:50:11;;;;;;;17.90;8.93;;;;;;;-141.97;nan;47655.53;5037865;28;20177;-85
2023/10/29 05:52:37;;;;;;;17.03;7.23;;;;;;;-141.97;nan;47736.28;5055678;28;20188;-85
2023/10/29 05:55:03;;;;;;;16.53;6.97;;;;;;;-141.97;nan;47576.75;5055261;28;20165;-85
2023/10/29 05:57:29;;;;;;;20.30;8.93;;;;;;;-141.97;nan;47807.41;5059086;28;20169;-86
2023/10/29 05:59:54;;;;;;;19.40;8.57;;;;;;;-141.97;nan;47695.91;5039229;28;20169;-85
2023/10/29 06:02:20;;;;;;;17.30;7.77;;;;;;;-141.97;nan;47611.34;5055573;28;20170;-85
2023/10/29 06:04:46;;;;;;;14.27;6.17;;;;;;;-141.97;nan;47584.44;5036478;28;20272;-85
2023/10/29 06:07:12;;;;;;;12.73;5.80;;;;;;;-141.97;nan;47611.34;5036619;28;20261;-85
2023/10/29 06:09:39;;;;;;;12.90;5.67;;;;;;;-141.97;nan;47570.97;5054729;28;20236;-85
2023/10/29 06:12:06;;;;;;;16.77;6.30;;;;;;;-141.97;nan;47659.38;5059156;28;20158;-83
2023/10/29 06:14:32;;;;;;;14.77;6.53;;;;;;;-141.97;nan;47619.03;5065155;28;20525;-84
2023/10/29 06:16:58;;;;;;;11.80;6.33;;;;;;;-141.97;nan;47703.59;5063126;28;20220;-83
2023/10/29 06:19:24;;;;;;;15.93;6.37;;;;;;;-141.97;nan;47647.84;5059359;28;20195;-85
2023/10/29 06:21:50;;;;;;;10.70;5.57;;;;;;;-141.97;nan;47692.06;5063287;28;20157;-83
2023/10/29 06:24:16;;;;;;;11.93;5.67;;;;;;;-141.97;nan;47692.06;5054001;28;20176;-83
2023/10/29 06:26:42;;;;;;;12.93;5.60;;;;;;;-141.97;nan;47653.63;5059161;28;20185;-85
2023/10/29 06:29:08;;;;;;;8.93;5.27;;;;;;;-141.97;nan;47678.63;5036958;28;20200;-84
2023/10/29 06:31:34;;;;;;;12.60;5.50;;;;;;;-141.97;nan;47657.47;5038271;28;20209;-85
2023/10/29 06:34:01;;;;;;;16.80;5.50;;;;;;;-141.97;nan;47647.84;5037941;28;20286;-85
2023/10/29 06:36:27;;;;;;;15.97;6.00;;;;;;;-141.97;nan;47678.63;5058167;28;20275;-85
2023/10/29 06:38:52;;;;;;;13.90;6.13;;;;;;;-141.97;nan;47713.22;5056609;28;20169;-84
2023/10/29 06:41:18;;;;;;;19.17;6.57;;;;;;;-141.97;nan;47595.97;5055797;28;20545;-84
2023/10/29 06:43:43;;;;;;;9.80;5.50;;;;;;;-141.97;nan;47592.13;5054197;28;20193;-87
2023/10/29 06:46:09;;;;;;;11.93;5.73;;;;;;;-141.97;nan;47465.25;5035268;28;20177;-87
2023/10/29 06:48:36;;;;;;;13.63;6.20;;;;;;;-141.97;nan;47676.69;5053110;28;20172;-87
2023/10/29 06:51:03;;;;;;;13.67;5.93;;;;;;;-141.97;nan;47565.22;5035522;28;20576;-86
2023/10/29 06:53:28;;;;;;;11.83;5.30;;;;;;;-141.97;nan;47784.34;5035611;28;20612;-87
2023/10/29 06:55:53;;;;;;;10.30;5.47;;;;;;;-141.97;nan;47636.31;5053173;28;20196;-87
2023/10/29 06:58:19;;;;;;;10.13;5.20;;;;;;;-141.97;nan;47767.03;5035465;28;20213;-87
2023/10/29 07:00:44;;;;;;;8.63;5.40;;;;;;;-141.97;nan;47695.91;5035080;28;20222;-88
2023/10/29 07:03:10;;;;;;;12.47;4.73;;;;;;;-141.97;nan;47511.38;5035273;28;20173;-87
2023/10/29 07:05:35;;;;;;;11.60;4.73;;;;;;;-141.97;nan;47572.91;5034704;28;20210;-88
2023/10/29 07:08:01;;;;;;;8.57;4.67;;;;;;;-141.97;nan;47605.56;5035421;28;20261;-86
2023/10/29 07:10:26;;;;;;;11.70;5.47;;;;;;;-141.97;nan;47759.34;5034977;28;20755;-86
2023/10/29 07:12:53;;;;;;;11.53;5.30;;;;;;;-141.97;nan;47551.75;5034769;28;20195;-86
2023/10/29 07:15:19;;;;;;;13.23;5.33;;;;;;;-141.97;nan;47557.53;5052636;28;20162;-86
2023/10/29 07:17:44;;;;;;;9.60;5.43;;;;;;;-141.97;nan;47788.19;5052309;28;20721;-87
2023/10/29 07:20:11;;;;;;;13.43;5.97;;;;;;;-141.97;nan;47663.22;5052453;28;20633;-87
2023/10/29 07:22:36;;;;;;;14.90;6.20;;;;;;;-141.97;nan;47447.97;5035964;28;20166;-84
2023/10/29 07:25:02;;;;;;;15.27;6.10;;;;;;;-141.97;nan;47761.25;5052557;28;20177;-87
2023/10/29 07:27:27;;;;;;;10.80;5.50;;;;;;;-141.97;nan;47784.34;5052408;28;20170;-87
2023/10/29 07:29:53;;;;;;;12.63;5.03;;;;;;;-141.97;nan;47755.50;5052220;28;20582;-88
2023/10/29 07:32:19;;;;;;;11.37;6.07;;;;;;;-141.97;nan;47661.31;5052349;28;20180;-87
2023/10/29 07:34:44;;;;;;;11.03;5.13;;;;;;;-141.97;nan;47726.66;5052232;28;20204;-87
2023/10/29 07:37:11;;;;;;;9.33;4.47;;;;;;;-141.97;nan;47569.06;5052052;28;20176;-88
2023/10/29 07:39:37;;;;;;;7.83;4.60;;;;;;;-141.97;nan;47553.69;5052656;28;20582;-88
2023/10/29 07:42:02;;;;;;;10.33;3.87;;;;;;;-141.97;nan;47649.78;5063249;28;20174;-85
2023/10/29 07:44:28;;;;;;;9.10;5.00;;;;;;;-141.97;nan;47515.22;5046804;28;20196;-88
2023/10/29 07:46:53;;;;;;;11.17;4.93;;;;;;;-141.97;nan;47603.66;5054267;28;20343;-87
2023/10/29 07:49:19;;;;;;;10.90;6.00;;;;;;;-141.97;nan;47599.81;5034246;28;20161;-88
2023/10/29 07:51:44;;;;;;;12.40;5.37;;;;;;;-141.97;nan;47503.69;5033945;28;20652;-87
2023/10/29 07:54:10;;;;;;;16.43;5.63;;;;;;;-141.97;nan;47617.09;5033784;28;20201;-88
2023/10/29 07:56:35;;;;;;;11.73;6.17;;;;;;;-141.97;nan;47553.69;5052376;28;20215;-85
2023/10/29 07:59:01;;;;;;;12.83;5.63;;;;;;;-141.97;nan;47638.25;5034120;28;20192;-86
2023/10/29 08:01:26;;;;;;;11.73;5.20;;;;;;;-141.97;nan;47530.59;5052047;28;20184;-87
2023/10/29 08:03:52;;;;;;;11.93;4.93;;;;;;;-141.97;nan;47455.66;5052898;28;20225;-88
2023/10/29 08:06:18;;;;;;;10.13;4.37;;;;;;;-141.97;nan;47745.88;5051528;28;20165;-88
2023/10/29 08:08:43;;;;;;;7.73;4.70;;;;;;;-141.97;nan;47549.84;5033530;28;20169;-87
2023/10/29 08:11:20;;;;;;;11.50;5.83;;;;;;;-141.97;nan;47522.91;5052002;28;20217;-87
2023/10/29 08:13:46;;;;;;;9.43;4.33;;;;;;;-141.97;nan;47586.34;5051543;28;20193;-88
2023/10/29 08:16:12;;;;;;;8.13;3.90;;;;;;;-141.97;nan;47561.38;5051906;28;20221;-87
2023/10/29 08:18:38;;;;;;;6.17;3.50;;;;;;;-141.97;nan;47534.44;5051676;28;20158;-87
2023/10/29 08:21:03;;;;;;;10.27;3.90;;;;;;;-141.97;nan;47797.78;5033828;28;20487;-87
2023/10/29 08:23:29;;;;;;;6.87;3.80;;;;;;;-141.97;nan;47569.06;5035480;28;20267;-88
2023/10/29 08:25:55;;;;;;;6.13;3.60;;;;;;;-141.97;nan;47665.16;5052464;28;20166;-87
2023/10/29 08:28:20;;;;;;;9.07;3.97;;;;;;;-141.97;nan;47469.09;5051719;28;20162;-87
2023/10/29 08:30:48;;;;;;;8.40;3.87;;;;;;;-141.97;nan;47472.94;5051684;28;20216;-87
2023/10/29 08:33:14;;;;;;;6.93;3.60;;;;;;;-141.97;nan;47592.13;5033077;28;20204;-85
2023/10/29 08:35:44;;;;;;;6.93;3.43;;;;;;;-141.97;nan;47580.59;5051408;28;20161;-87
2023/10/29 08:38:09;;;;;;;5.83;3.23;;;;;;;-141.97;nan;47726.66;5051632;28;20522;-86
2023/10/29 08:40:35;;;;;;;7.27;3.30;;;;;;;-141.97;nan;47463.34;5051404;28;20168;-87
2023/10/29 08:43:06;;;;;;;9.37;3.30;;;;;;;-141.97;nan;47480.63;5034030;28;20191;-87
2023/10/29 08:45:32;;;;;;;7.67;3.50;;;;;;;-141.97;nan;47576.75;5051180;28;20160;-87
2023/10/29 08:47:57;;;;;;;6.90;3.63;;;;;;;-141.97;nan;47661.31;5051290;28;20169;-88
2023/10/29 08:50:23;;;;;;;6.67;3.70;;;;;;;-141.97;nan;47365.31;5051249;28;20169;-88
2023/10/29 08:52:48;;;;;;;7.03;3.13;;;;;;;-141.97;nan;47586.34;5079722;28;20231;-85
2023/10/29 08:55:15;;;;;;;6.07;3.60;;;;;;;-141.97;nan;47561.38;5075790;28;20181;-88
2023/10/29 08:57:40;;;;;;;6.50;3.40;;;;;;;-141.97;nan;47503.69;5049480;28;20161;-87
2023/10/29 09:00:06;;;;;;;6.47;3.40;;;;;;;-141.97;nan;47467.19;5051243;28;20188;-86
2023/10/29 09:02:32;;;;;;;6.33;3.33;;;;;;;-141.97;nan;47709.38;5051533;28;20172;-87
2023/10/29 09:04:57;;;;;;;12.37;4.13;;;;;;;-141.97;nan;47549.84;5051702;28;20177;-89
2023/10/29 09:07:27;;;;;;;5.60;3.83;;;;;;;-141.97;nan;47419.13;5052655;28;20199;-87
2023/10/29 09:09:52;;;;;;;8.97;3.43;;;;;;;-141.97;nan;47638.25;5051624;28;20182;-88
2023/10/29 09:12:18;;;;;;;9.10;3.97;;;;;;;-141.97;nan;47551.75;5062752;28;20192;-87
2023/10/29 09:14:44;;;;;;;10.77;3.85;;;;;;;-141.97;nan;47521.00;5065235;28;20181;-86
2023/10/29 09:17:10;;;;;;;5.93;3.40;;;;;;;-141.97;nan;47745.88;5063030;28;20614;-88
2023/10/29 09:19:35;;;;;;;7.50;3.78;;;;;;;-141.97;nan;47432.59;5039130;28;20544;-86
2023/10/29 09:22:01;;;;;;;5.68;3.50;;;;;;;-141.97;nan;47484.47;5034308;28;20171;-87
2023/10/29 09:24:26;;;;;;;9.15;3.47;;;;;;;-141.97;nan;47461.41;5033519;28;20638;-86
2023/10/29 09:26:51;;;;;;;6.80;3.60;;;;;;;-141.97;nan;47713.22;5057597;28;20179;-87
2023/10/29 09:29:17;;;;;;;6.50;3.60;;;;;;;-141.97;nan;47553.69;5051387;28;20160;-82
2023/10/29 09:31:42;;;;;;;7.25;3.40;;;;;;;-141.97;nan;47509.47;5051483;28;20195;-82
2023/10/29 09:34:08;;;;;;;9.05;3.53;;;;;;;-141.97;nan;47323.03;5073146;28;20200;-84
2023/10/29 09:36:34;;;;;;;7.32;3.25;;;;;;;-141.97;nan;47561.38;5069733;28;20165;-83
2023/10/29 09:38:59;;;;;;;7.03;3.30;;;;;;;-141.97;nan;47405.69;5065382;28;20216;-81
2023/10/29 09:41:25;;;;;;;6.25;3.50;;;;;;;-141.97;nan;47607.50;5052117;28;20507;-82
2023/10/29 09:43:53;;;;;;;9.63;3.72;;;;;;;-141.97;nan;47421.06;5051895;28;20212;-82
2023/10/29 09:46:21;;;;;;;6.43;3.55;;;;;;;-141.97;nan;47492.16;5033439;28;20176;-82
2023/10/29 09:48:48;;;;;;;6.95;3.63;;;;;;;-141.97;nan;47524.84;5051038;28;20651;-82
2023/10/29 09:51:14;;;;;;;8.32;3.30;;;;;;;-141.97;nan;47522.91;5032643;28;20227;-82
2023/10/29 09:53:39;;;;;;;6.00;3.25;;;;;;;-141.97;nan;47530.59;5050315;28;20641;-82
2023/10/29 09:56:08;;;;;;;8.98;3.38;;;;;;;-141.97;nan;47743.97;5032918;28;20208;-83
2023/10/29 09:58:35;;;;;;;6.47;3.22;;;;;;;-141.97;nan;47757.41;5050772;28;20192;-82
2023/10/29 10:01:03;;;;;;;6.72;3.20;;;;;;;-141.97;nan;47488.31;5032604;28;20258;-83
2023/10/29 10:03:29;;;;;;;6.63;3.03;;;;;;;-141.97;nan;47522.91;5050485;28;20168;-82
2023/10/29 10:05:56;;;;;;;5.22;3.22;;;;;;;-141.97;nan;47726.66;5032914;28;20177;-82
2023/10/29 10:08:29;;;;;;;5.15;3.05;;;;;;;-141.97;nan;47515.22;5032447;28;20172;-84
2023/10/29 10:10:55;;;;;;;5.72;3.35;;;;;;;-141.97;nan;47519.06;5032394;28;20177;-84
2023/10/29 10:13:51;;;;;;;8.55;3.30;;;;;;;-141.97;nan;47542.16;5050663;28;20199;-82
2023/10/29 10:16:16;;;;;;;4.35;3.03;;;;;;;-141.97;nan;47749.72;4949605;29;20230;-82
2023/10/29 10:18:47;;;;;;;6.00;3.13;;;;;;;-141.97;nan;47497.94;4949883;29;20181;-83
2023/10/29 10:21:13;;;;;;;5.50;3.40;;;;;;;-141.97;nan;47509.47;4949839;29;20293;-82
2023/10/29 10:23:55;;;;;;;4.03;3.30;;;;;;;-141.97;nan;47684.38;4933940;29;20259;-83
2023/10/29 10:26:27;;;;;;;5.57;3.17;;;;;;;-141.97;nan;47524.84;4937495;29;20202;-82
2023/10/29 10:28:55;;;;;;;7.25;3.42;;;;;;;-141.97;nan;47476.78;4953746;29;20181;-82
2023/10/29 10:31:21;;;;;;;6.65;3.10;;;;;;;-141.97;nan;47492.16;4953771;29;20171;-81
2023/10/29 10:33:46;;;;;;;6.35;3.33;;;;;;;-141.97;nan;47405.69;4953123;29;20298;-82
2023/10/29 10:36:12;;;;;;;6.32;3.08;;;;;;;-141.97;nan;47496.00;4953151;29;20164;-82
2023/10/29 10:38:51;;;;;;;6.30;3.20;;;;;;;-141.97;nan;47434.50;4936814;29;20177;-81
2023/10/29 10:41:16;;;;;;;6.07;3.40;;;;;;;-141.97;nan;47674.78;4953183;29;20649;-82
2023/10/29 10:43:42;;;;;;;6.82;3.20;;;;;;;-141.97;nan;47497.94;4952925;29;20240;-83
2023/10/29 10:46:11;;;;;;;6.90;3.30;;;;;;;-141.97;nan;47522.91;4955838;29;20649;-84
2023/10/29 10:48:37;;;;;;;5.30;3.00;;;;;;;-141.97;nan;47526.75;4957420;29;20204;-83
2023/10/29 10:51:05;;;;;;;9.50;3.30;;;;;;;-141.97;nan;47521.00;4956450;28;20671;-82
2023/10/29 10:53:31;;;;;;;6.55;3.17;;;;;;;-141.97;nan;47499.84;5039209;28;20212;-82
2023/10/29 10:55:59;;;;;;;8.07;3.30;;;;;;;-141.97;nan;47436.44;5053800;28;20154;-82
2023/10/29 10:58:26;;;;;;;8.88;3.92;;;;;;;-141.97;nan;47505.63;5035367;28;20602;-82
2023/10/29 11:00:53;;;;;;;8.82;3.67;;;;;;;-141.97;nan;47521.00;5052942;28;20603;-82
2023/10/29 11:03:20;;;;;;;9.55;3.58;;;;;;;-141.97;nan;47338.41;5052686;28;20168;-83
2023/10/29 11:05:46;;;;;;;6.32;3.30;;;;;;;-141.97;nan;47409.53;5052690;28;20230;-82
2023/10/29 11:08:16;;;;;;;8.02;3.17;;;;;;;-141.97;nan;47634.41;5052645;28;20253;-82
2023/10/29 11:10:46;;;;;;;5.05;3.05;;;;;;;-141.97;nan;47422.97;5035280;28;20165;-80
2023/10/29 11:13:20;;;;;;;6.13;3.10;;;;;;;-141.97;nan;47507.53;5036282;28;20490;-82
2023/10/29 11:15:49;;;;;;;6.03;3.10;;;;;;;-141.97;nan;47490.25;5055083;28;20153;-82
2023/10/29 11:18:27;;;;;;;6.15;3.00;;;;;;;-141.97;nan;47434.50;5054332;28;20190;-82
2023/10/29 11:20:53;;;;;;;6.43;3.25;;;;;;;-141.97;nan;47667.06;5052306;28;20165;-82
2023/10/29 11:23:27;;;;;;;5.97;3.50;;;;;;;-141.97;nan;47472.94;5053115;28;20157;-82
2023/10/29 11:26:27;;;;;;;7.03;3.30;;;;;;;-141.97;nan;47540.22;5055042;28;20165;-82